TimeCST,TemperatureF,Dew PointF,Humidity,Sea Level PressureIn,VisibilityMPH,Wind Direction,Wind SpeedMPH,Gust SpeedMPH,PrecipitationIn,Events,Conditions,WindDirDegrees,DateUTC
12:44 AM,69.8,66.2,88,30.11,10.0,SE,12.7,-,0.00,,Overcast,130,2013-03-08 06:44:00
12:51 AM,69.8,66.2,88,30.11,10.0,SE,11.5,-,0.00,,Overcast,130,2013-03-08 06:51:00
12:53 AM,70.0,66.0,87,30.10,10.0,SE,12.7,-,0.00,,Overcast,140,2013-03-08 06:53:00
1:20 AM,69.8,66.2,88,30.10,10.0,SE,13.8,-,0.00,Rain,Light Rain,130,2013-03-08 07:20:00
1:27 AM,69.8,66.2,88,30.10,10.0,SE,13.8,-,0.00,Rain,Light Rain,140,2013-03-08 07:27:00
1:53 AM,69.1,66.9,93,30.09,8.0,SSE,12.7,-,0.08,Rain,Light Rain,150,2013-03-08 07:53:00
2:02 AM,69.8,66.2,88,30.08,8.0,SSE,12.7,-,0.01,Rain,Light Rain,160,2013-03-08 08:02:00
2:43 AM,69.8,66.2,88,30.07,9.0,SSE,16.1,-,0.05,Rain,Light Rain,160,2013-03-08 08:43:00
2:53 AM,69.1,66.9,93,30.06,8.0,SSE,13.8,-,0.06,Rain,Light Rain,160,2013-03-08 08:53:00
3:02 AM,69.8,66.2,88,30.06,8.0,SSE,12.7,-,0.01,Rain,Light Rain,160,2013-03-08 09:02:00
3:23 AM,69.8,68.0,94,30.05,9.0,SSE,11.5,-,0.03,Rain,Light Rain,160,2013-03-08 09:23:00
3:29 AM,69.8,66.2,88,30.05,6.0,SSE,13.8,-,0.05,Rain,Heavy Rain,160,2013-03-08 09:29:00
3:53 AM,69.1,68.0,96,30.05,7.0,SSE,12.7,-,0.11,Rain,Light Rain,160,2013-03-08 09:53:00
4:53 AM,69.1,68.0,96,30.04,10.0,SSE,8.1,-,0.01,Rain,Light Rain,160,2013-03-08 10:53:00
5:17 AM,69.8,68.0,94,30.06,10.0,SSE,8.1,-,0.00,,Overcast,160,2013-03-08 11:17:00
5:30 AM,69.8,68.0,94,30.06,10.0,SSE,8.1,-,0.00,Rain,Light Rain,160,2013-03-08 11:30:00
5:37 AM,69.8,68.0,94,30.06,10.0,SSE,8.1,-,0.00,,Overcast,160,2013-03-08 11:37:00
5:50 AM,69.8,68.0,94,30.06,9.0,SSE,9.2,-,0.00,,Overcast,150,2013-03-08 11:50:00
5:53 AM,69.1,68.0,96,30.05,9.0,SE,9.2,-,0.00,,Overcast,140,2013-03-08 11:53:00
6:53 AM,68.0,66.9,96,30.06,10.0,SSE,10.4,-,N/A,,Overcast,150,2013-03-08 12:53:00
7:02 AM,68.0,66.2,94,30.07,9.0,SSE,10.4,-,N/A,,Overcast,150,2013-03-08 13:02:00
7:53 AM,69.1,66.9,93,30.08,10.0,SE,9.2,-,N/A,,Mostly Cloudy,140,2013-03-08 13:53:00
8:02 AM,69.8,66.2,88,30.08,10.0,SE,9.2,-,N/A,,Mostly Cloudy,130,2013-03-08 14:02:00
8:53 AM,72.0,68.0,87,30.08,10.0,SE,15.0,23.0,N/A,,Scattered Clouds,140,2013-03-08 14:53:00
9:53 AM,73.9,66.9,79,30.08,10.0,SSE,19.6,24.2,N/A,,Partly Cloudy,150,2013-03-08 15:53:00
10:53 AM,73.9,66.0,76,30.08,10.0,SSE,17.3,25.3,N/A,,Partly Cloudy,150,2013-03-08 16:53:00
11:53 AM,77.0,66.9,71,30.07,10.0,SE,21.9,27.6,N/A,,Scattered Clouds,140,2013-03-08 17:53:00
12:01 PM,78.8,66.2,65,30.07,10.0,SE,24.2,28.8,N/A,,Mostly Cloudy,140,2013-03-08 18:01:00
12:53 PM,77.0,64.9,66,30.04,10.0,SE,25.3,31.1,N/A,,Overcast,140,2013-03-08 18:53:00
1:21 PM,77.0,64.4,65,30.02,10.0,SSE,20.7,31.1,N/A,,Overcast,150,2013-03-08 19:21:00
1:33 PM,77.0,64.4,65,30.01,10.0,SE,23.0,29.9,N/A,,Overcast,140,2013-03-08 19:33:00
1:41 PM,78.8,64.4,61,30.01,10.0,SSE,21.9,31.1,N/A,,Mostly Cloudy,150,2013-03-08 19:41:00
1:53 PM,77.0,64.9,66,30.00,10.0,SE,24.2,32.2,N/A,,Mostly Cloudy,140,2013-03-08 19:53:00
2:36 PM,77.0,64.4,65,30.00,10.0,SSE,23.0,28.8,N/A,,Mostly Cloudy,150,2013-03-08 20:36:00
2:43 PM,75.2,64.4,69,30.01,10.0,SE,24.2,29.9,N/A,,Mostly Cloudy,140,2013-03-08 20:43:00
2:53 PM,75.9,64.9,69,30.00,10.0,SE,18.4,29.9,N/A,,Overcast,130,2013-03-08 20:53:00
3:53 PM,73.9,64.9,73,29.99,10.0,SE,23.0,26.5,N/A,,Overcast,130,2013-03-08 21:53:00
4:36 PM,73.4,64.4,73,29.99,10.0,ESE,20.7,28.8,N/A,,Overcast,120,2013-03-08 22:36:00
4:53 PM,73.0,64.9,76,30.00,10.0,SE,20.7,25.3,N/A,,Overcast,140,2013-03-08 22:53:00
5:12 PM,73.4,64.4,73,30.01,10.0,SE,16.1,25.3,N/A,,Mostly Cloudy,130,2013-03-08 23:12:00
5:21 PM,73.4,64.4,73,30.01,10.0,SE,15.0,-,N/A,,Mostly Cloudy,130,2013-03-08 23:21:00
5:29 PM,73.4,64.4,73,30.02,10.0,SE,15.0,-,N/A,,Mostly Cloudy,130,2013-03-08 23:29:00
5:53 PM,72.0,64.9,78,30.02,10.0,ESE,12.7,-,N/A,,Overcast,120,2013-03-08 23:53:00
6:53 PM,71.1,64.9,81,30.02,10.0,ESE,13.8,-,N/A,,Scattered Clouds,110,2013-03-09 00:53:00
7:53 PM,71.1,66.0,84,30.03,10.0,ESE,10.4,20.7,N/A,,Mostly Cloudy,110,2013-03-09 01:53:00
8:53 PM,71.1,66.0,84,30.05,10.0,SE,12.7,-,N/A,,Overcast,130,2013-03-09 02:53:00
9:53 PM,71.1,66.0,84,30.06,10.0,SE,13.8,-,N/A,,Scattered Clouds,140,2013-03-09 03:53:00
10:53 PM,71.1,66.0,84,30.04,10.0,SE,15.0,-,N/A,,Mostly Cloudy,130,2013-03-09 04:53:00
11:53 PM,70.0,66.0,87,30.01,10.0,SE,16.1,24.2,N/A,,Partly Cloudy,140,2013-03-09 05:53:00